createdAt,value
2022-12-12T00:01:25.696Z,6.65
2022-12-12T00:03:54.372Z,6.70
2022-12-12T00:06:25.466Z,6.62
2022-12-12T00:08:53.731Z,6.53
2022-12-12T00:11:22.631Z,6.55
2022-12-12T00:13:50.956Z,6.68
2022-12-12T00:16:19.320Z,6.69
2022-12-12T00:18:47.773Z,6.69
2022-12-12T00:21:18.942Z,6.61
2022-12-12T00:23:48.735Z,6.62
2022-12-12T00:26:20.231Z,6.39
2022-12-12T00:28:49.186Z,6.41
2022-12-12T00:31:18.058Z,6.50
2022-12-12T00:33:48.129Z,6.57
2022-12-12T00:36:16.664Z,6.52
2022-12-12T00:38:44.827Z,6.56
2022-12-12T00:41:14.596Z,6.53
2022-12-12T00:43:42.782Z,6.30
2022-12-12T00:46:14.786Z,6.13
2022-12-12T00:48:43.086Z,6.07
2022-12-12T00:51:14.928Z,6.12
2022-12-12T00:53:43.018Z,6.08
2022-12-12T00:56:11.226Z,6.06
2022-12-12T00:58:40.740Z,6.10
2022-12-12T01:01:14.171Z,6.01
2022-12-12T01:03:43.586Z,6.07
2022-12-12T01:06:11.773Z,6.07
2022-12-12T01:08:40.884Z,6.07
2022-12-12T01:11:11.298Z,5.99
2022-12-12T01:13:41.428Z,5.58
2022-12-12T01:16:10.336Z,5.59
2022-12-12T01:18:38.825Z,5.60
2022-12-12T01:21:09.692Z,5.64
2022-12-12T01:23:38.234Z,5.82
2022-12-12T01:26:09.651Z,5.77
2022-12-12T01:28:38.023Z,5.71
2022-12-12T01:31:08.369Z,5.67
2022-12-12T01:33:37.257Z,5.61
2022-12-12T01:36:06.597Z,5.36
2022-12-12T01:38:34.722Z,5.50
2022-12-12T01:41:02.908Z,5.58
2022-12-12T01:43:31.896Z,5.39
2022-12-12T01:46:37.275Z,5.59
2022-12-12T01:49:13.224Z,5.40
2022-12-12T01:51:42.322Z,5.24
2022-12-12T01:54:12.840Z,5.36
2022-12-12T01:56:44.250Z,5.07
2022-12-12T01:59:15.865Z,5.15
2022-12-12T02:01:45.690Z,5.27
2022-12-12T02:04:15.471Z,5.29
2022-12-12T02:06:44.668Z,5.04
2022-12-12T02:09:14.974Z,5.03
2022-12-12T02:11:46.599Z,4.87
2022-12-12T02:14:17.895Z,4.86
2022-12-12T02:17:05.877Z,4.92
2022-12-12T02:20:06.195Z,5.05
2022-12-12T02:22:54.824Z,5.06
2022-12-12T02:25:58.815Z,5.18
2022-12-12T02:29:08.642Z,5.17
2022-12-12T02:31:44.358Z,5.21
2022-12-12T02:34:20.991Z,5.02
2022-12-12T02:36:58.033Z,4.81
2022-12-12T02:39:32.122Z,4.75
2022-12-12T02:42:06.846Z,4.69
2022-12-12T02:44:41.171Z,4.81
2022-12-12T02:47:17.102Z,4.78
2022-12-12T02:49:50.067Z,4.83
2022-12-12T02:52:19.489Z,4.89
2022-12-12T02:54:48.668Z,4.88
2022-12-12T02:57:19.370Z,4.82
2022-12-12T02:59:50.473Z,4.73
2022-12-12T03:02:48.613Z,4.74
2022-12-12T03:05:56.272Z,4.75
2022-12-12T03:08:39.285Z,4.75
2022-12-12T03:11:12.317Z,4.83
2022-12-12T03:13:49.030Z,4.76
2022-12-12T03:16:27.771Z,4.81
2022-12-12T03:19:05.171Z,4.66
2022-12-12T03:21:41.005Z,4.78
2022-12-12T03:24:15.993Z,4.63
2022-12-12T03:26:50.375Z,4.51
2022-12-12T03:29:23.177Z,4.65
2022-12-12T03:31:57.877Z,4.51
2022-12-12T03:34:34.789Z,4.61
2022-12-12T03:37:08.070Z,4.67
2022-12-12T03:39:41.786Z,4.58
2022-12-12T03:42:14.480Z,4.65
2022-12-12T03:44:48.223Z,4.67
2022-12-12T03:47:24.769Z,4.76
2022-12-12T03:49:59.033Z,4.73
2022-12-12T03:52:34.855Z,4.66
2022-12-12T03:55:09.712Z,4.70
2022-12-12T03:57:42.658Z,4.47
2022-12-12T04:00:15.481Z,4.34
2022-12-12T04:02:51.961Z,4.52
2022-12-12T04:05:25.399Z,4.30
2022-12-12T04:07:59.851Z,4.35
2022-12-12T04:10:52.183Z,4.31
2022-12-12T04:13:32.580Z,4.41
2022-12-12T04:16:05.439Z,4.32
2022-12-12T04:18:42.376Z,4.21
2022-12-12T04:21:47.883Z,4.16
2022-12-12T04:24:24.583Z,4.28
2022-12-12T04:26:59.061Z,4.07
2022-12-12T04:29:39.701Z,4.07
2022-12-12T04:32:20.074Z,4.19
2022-12-12T04:34:53.742Z,4.25
2022-12-12T04:37:26.054Z,4.16
2022-12-12T04:39:57.986Z,4.14
2022-12-12T04:42:29.882Z,4.26
2022-12-12T04:45:04.940Z,4.35
2022-12-12T04:47:35.116Z,4.41
2022-12-12T04:50:04.739Z,4.39
2022-12-12T04:52:35.904Z,4.41
2022-12-12T04:55:11.283Z,4.39
2022-12-12T04:57:43.985Z,4.51
2022-12-12T05:00:15.045Z,4.49
2022-12-12T05:02:51.541Z,4.64
2022-12-12T05:05:24.336Z,4.70
2022-12-12T05:07:58.328Z,4.48
2022-12-12T05:10:26.580Z,4.27
2022-12-12T05:12:59.978Z,4.30
2022-12-12T05:15:29.807Z,4.20
2022-12-12T05:18:02.879Z,4.20
2022-12-12T05:20:31.391Z,3.98
2022-12-12T05:23:00.885Z,3.84
2022-12-12T05:25:29.100Z,3.89
2022-12-12T05:27:57.493Z,3.93
2022-12-12T05:30:26.203Z,3.70
2022-12-12T05:32:54.372Z,3.77
2022-12-12T05:35:23.030Z,3.87
2022-12-12T05:37:52.104Z,3.83
2022-12-12T05:40:22.824Z,4.03
2022-12-12T05:42:51.634Z,3.96
2022-12-12T05:45:20.152Z,3.97
2022-12-12T05:47:48.253Z,3.98
2022-12-12T05:50:16.407Z,3.97
2022-12-12T05:52:45.193Z,4.11
2022-12-12T05:55:14.091Z,4.25
2022-12-12T05:57:43.807Z,4.40
2022-12-12T06:00:12.943Z,4.40
2022-12-12T06:02:41.130Z,4.58
2022-12-12T06:05:10.959Z,4.68
2022-12-12T06:07:39.576Z,4.78
2022-12-12T06:10:09.288Z,4.73
2022-12-12T06:12:37.424Z,4.78
2022-12-12T06:15:08.239Z,4.75
2022-12-12T06:17:36.482Z,4.83
2022-12-12T06:20:05.506Z,4.87
2022-12-12T06:22:35.116Z,4.77
2022-12-12T06:25:03.525Z,4.85
2022-12-12T06:27:31.660Z,4.94
2022-12-12T06:30:04.274Z,5.12
2022-12-12T06:33:01.073Z,5.11
2022-12-12T06:35:35.289Z,5.20
2022-12-12T06:38:03.691Z,5.24
2022-12-12T06:40:31.799Z,5.20
2022-12-12T06:42:59.879Z,5.29
2022-12-12T06:45:28.038Z,5.33
2022-12-12T06:47:57.528Z,5.49
2022-12-12T06:50:25.598Z,5.72
2022-12-12T06:52:53.691Z,5.80
2022-12-12T06:55:21.810Z,5.90
2022-12-12T06:57:50.220Z,5.98
2022-12-12T07:00:18.998Z,6.06
2022-12-12T07:02:47.193Z,6.04
2022-12-12T07:05:16.977Z,6.27
2022-12-12T07:07:45.449Z,6.40
2022-12-12T07:10:13.650Z,6.44
2022-12-12T07:12:45.436Z,6.48
2022-12-12T07:15:15.740Z,6.63
2022-12-12T07:17:43.879Z,6.78
2022-12-12T07:20:12.679Z,6.78
2022-12-12T07:22:43.061Z,6.90
2022-12-12T07:25:11.638Z,7.03
2022-12-12T07:27:39.959Z,7.09
2022-12-12T07:30:09.114Z,7.25
2022-12-12T07:32:37.306Z,7.43
2022-12-12T07:35:05.798Z,7.44
2022-12-12T07:37:33.990Z,7.40
2022-12-12T07:40:03.476Z,7.38
2022-12-12T07:42:31.773Z,7.29
2022-12-12T07:44:59.961Z,7.18
2022-12-12T07:47:28.055Z,7.25
2022-12-12T07:49:56.238Z,7.17
2022-12-12T07:52:24.513Z,7.37
2022-12-12T07:54:52.662Z,7.60
2022-12-12T07:57:22.212Z,7.97
2022-12-12T07:59:50.338Z,8.27
2022-12-12T08:02:18.536Z,8.45
2022-12-12T08:04:46.915Z,8.42
2022-12-12T08:07:15.074Z,8.71
2022-12-12T08:09:43.162Z,9.16
2022-12-12T08:12:11.454Z,9.43
2022-12-12T08:14:41.096Z,9.47
2022-12-12T08:17:09.292Z,9.23
2022-12-12T08:19:37.544Z,9.48
2022-12-12T08:22:05.789Z,9.59
2022-12-12T08:24:34.010Z,9.52
2022-12-12T08:27:02.245Z,9.49
2022-12-12T08:29:30.350Z,9.62
2022-12-12T08:32:00.020Z,9.67
2022-12-12T08:34:28.154Z,9.51
2022-12-12T08:36:56.240Z,9.55
2022-12-12T08:39:24.663Z,9.29
2022-12-12T08:41:53.270Z,9.06
2022-12-12T08:44:22.248Z,9.01
2022-12-12T08:46:50.792Z,8.96
2022-12-12T08:49:20.358Z,8.96
2022-12-12T08:51:48.487Z,8.74
2022-12-12T08:54:16.648Z,8.59
2022-12-12T08:56:44.861Z,8.54
2022-12-12T08:59:13.373Z,8.48
2022-12-12T09:01:42.283Z,8.50
2022-12-12T09:04:11.564Z,8.50
2022-12-12T09:06:41.042Z,8.41
2022-12-12T09:09:09.159Z,8.10
2022-12-12T09:11:37.244Z,8.21
2022-12-12T09:14:05.532Z,7.93
2022-12-12T09:16:33.724Z,7.96
2022-12-12T09:19:01.876Z,7.94
2022-12-12T09:21:30.033Z,8.06
2022-12-12T09:23:59.767Z,8.21
2022-12-12T09:26:27.921Z,8.22
2022-12-12T09:28:56.145Z,8.01
2022-12-12T09:31:24.453Z,7.88
2022-12-12T09:33:52.673Z,7.80
2022-12-12T09:36:21.178Z,7.83
2022-12-12T09:38:49.345Z,7.97
2022-12-12T09:41:21.985Z,7.85
2022-12-12T09:43:57.207Z,8.02
2022-12-12T09:46:39.137Z,8.20
2022-12-12T09:49:15.601Z,8.26
2022-12-12T09:51:47.256Z,8.11
2022-12-12T09:54:18.028Z,7.87
2022-12-12T09:57:13.059Z,7.78
2022-12-12T09:59:50.412Z,7.58
2022-12-12T10:02:41.403Z,7.35
2022-12-12T10:05:24.263Z,7.54
2022-12-12T10:08:00.527Z,7.42
2022-12-12T10:10:34.106Z,7.42
2022-12-12T10:13:06.327Z,7.55
2022-12-12T10:15:39.350Z,7.65
2022-12-12T10:18:13.823Z,7.56
2022-12-12T10:20:48.791Z,7.62
2022-12-12T10:23:25.546Z,7.59
2022-12-12T10:25:58.017Z,7.60
2022-12-12T10:28:29.611Z,7.68
2022-12-12T10:31:17.947Z,7.61
2022-12-12T10:34:03.077Z,7.73
2022-12-12T10:36:46.619Z,7.72
2022-12-12T10:39:22.698Z,7.96
2022-12-12T10:41:58.501Z,7.90
2022-12-12T10:44:47.616Z,8.03
2022-12-12T10:47:16.020Z,7.85
2022-12-12T10:49:44.299Z,7.90
2022-12-12T10:52:19.227Z,7.80
2022-12-12T10:54:52.307Z,7.77
2022-12-12T10:57:24.731Z,7.60
2022-12-12T10:59:56.035Z,7.98
2022-12-12T11:02:30.192Z,7.99
2022-12-12T11:05:11.456Z,8.22
2022-12-12T11:07:41.882Z,8.31
2022-12-12T11:10:27.946Z,8.34
2022-12-12T11:13:02.113Z,8.28
2022-12-12T11:15:42.452Z,8.53
2022-12-12T11:18:16.291Z,8.67
2022-12-12T11:20:50.979Z,8.54
2022-12-12T11:23:22.188Z,8.74
2022-12-12T11:25:56.680Z,8.92
2022-12-12T11:28:29.771Z,8.77
2022-12-12T11:31:03.387Z,8.65
2022-12-12T11:33:35.681Z,8.80
2022-12-12T11:36:06.662Z,8.89
2022-12-12T11:38:41.078Z,8.93
2022-12-12T11:41:11.214Z,9.04
2022-12-12T11:43:53.811Z,8.87
2022-12-12T11:46:26.163Z,8.99
2022-12-12T11:49:00.514Z,9.18
2022-12-12T11:51:34.816Z,9.20
2022-12-12T11:54:04.685Z,9.35
2022-12-12T11:56:42.682Z,9.38
2022-12-12T11:59:30.538Z,8.98
2022-12-12T12:02:16.856Z,9.01
2022-12-12T12:04:54.855Z,9.13
2022-12-12T12:07:50.820Z,9.28
2022-12-12T12:10:33.604Z,9.13
2022-12-12T12:13:11.208Z,9.30
2022-12-12T12:15:47.830Z,9.27
2022-12-12T12:18:30.231Z,9.05
2022-12-12T12:21:21.813Z,9.08
2022-12-12T12:23:59.423Z,9.14
2022-12-12T12:26:36.161Z,9.11
2022-12-12T12:29:19.031Z,9.15
2022-12-12T12:31:59.886Z,9.35
2022-12-12T12:34:36.993Z,9.55
2022-12-12T12:37:21.844Z,9.58
2022-12-12T12:40:01.252Z,9.89
2022-12-12T12:42:49.625Z,10.03
2022-12-12T12:45:23.577Z,10.14
2022-12-12T12:47:57.338Z,10.28
2022-12-12T12:50:32.742Z,10.24
2022-12-12T12:53:06.293Z,10.23
2022-12-12T12:55:42.119Z,10.04
2022-12-12T12:58:19.798Z,10.01
2022-12-12T13:00:54.377Z,9.67
2022-12-12T13:03:27.714Z,9.76
2022-12-12T13:06:02.460Z,9.58
2022-12-12T13:08:36.094Z,9.33
2022-12-12T13:11:09.944Z,9.50
2022-12-12T13:13:41.519Z,9.50
2022-12-12T13:16:14.572Z,9.36
2022-12-12T13:18:46.160Z,9.29
2022-12-12T13:21:23.807Z,9.05
2022-12-12T13:23:57.908Z,9.03
2022-12-12T13:26:34.537Z,9.03
2022-12-12T13:29:07.908Z,8.76
2022-12-12T13:31:56.363Z,8.54
2022-12-12T13:34:27.840Z,8.63
2022-12-12T13:36:59.834Z,8.59
2022-12-12T13:39:31.187Z,8.54
2022-12-12T13:42:02.146Z,8.34
2022-12-12T13:44:37.159Z,8.22
2022-12-12T13:47:06.212Z,8.23
2022-12-12T13:49:47.099Z,8.22
2022-12-12T13:52:33.544Z,8.15
2022-12-12T13:55:23.489Z,8.01
2022-12-12T13:58:21.146Z,7.96
2022-12-12T14:00:49.699Z,7.87
2022-12-12T14:03:31.632Z,7.74
2022-12-12T14:06:11.954Z,7.75
2022-12-12T14:08:50.358Z,7.73
2022-12-12T14:11:39.404Z,7.64
2022-12-12T14:14:23.095Z,7.53
2022-12-12T14:16:56.480Z,7.53
2022-12-12T14:19:36.048Z,7.39
2022-12-12T14:22:04.449Z,7.35
2022-12-12T14:25:08.691Z,7.27
2022-12-12T14:28:16.004Z,7.04
2022-12-12T14:30:55.305Z,6.74
2022-12-12T14:34:15.699Z,6.55
2022-12-12T14:37:19.001Z,6.59
2022-12-12T14:40:11.068Z,6.41
2022-12-12T14:43:19.563Z,6.31
2022-12-12T14:45:40.048Z,6.28
2022-12-12T14:48:33.320Z,6.12
2022-12-12T14:51:06.191Z,5.98
2022-12-12T14:53:48.414Z,5.99
2022-12-12T14:56:19.054Z,6.00
2022-12-12T14:58:57.321Z,6.16
2022-12-12T15:01:32.444Z,6.14
2022-12-12T15:04:03.890Z,6.15
2022-12-12T15:06:34.632Z,6.18
2022-12-12T15:09:19.194Z,5.92
2022-12-12T15:11:48.437Z,5.99
2022-12-12T15:14:21.193Z,6.04
2022-12-12T15:16:53.527Z,6.24
2022-12-12T15:19:26.691Z,6.20
2022-12-12T15:21:55.218Z,6.24
2022-12-12T15:24:25.972Z,6.26
2022-12-12T15:26:57.091Z,6.33
2022-12-12T15:29:29.239Z,6.36
2022-12-12T15:32:01.583Z,6.34
2022-12-12T15:34:36.195Z,6.27
2022-12-12T15:37:21.745Z,6.29
2022-12-12T15:40:03.803Z,6.20
2022-12-12T15:42:31.948Z,6.24
2022-12-12T15:45:02.047Z,6.27
2022-12-12T15:47:30.460Z,6.31
2022-12-12T15:50:08.086Z,6.31
2022-12-12T15:52:36.875Z,6.37
2022-12-12T15:55:06.462Z,6.41
2022-12-12T15:57:46.343Z,6.44
2022-12-12T16:00:30.392Z,6.45
2022-12-12T16:03:00.672Z,6.37
2022-12-12T16:05:32.108Z,6.34
2022-12-12T16:08:32.031Z,6.37
2022-12-12T16:11:03.031Z,6.34
2022-12-12T16:13:38.615Z,6.35
2022-12-12T16:16:49.112Z,6.40
2022-12-12T16:19:37.170Z,6.33
2022-12-12T16:22:08.128Z,6.26
2022-12-12T16:24:48.213Z,6.20
2022-12-12T16:27:16.536Z,6.15
2022-12-12T16:29:44.916Z,6.05
2022-12-12T16:32:17.272Z,6.10
2022-12-12T16:34:46.950Z,6.11
2022-12-12T16:37:16.905Z,6.00
2022-12-12T16:39:45.475Z,5.88
2022-12-12T16:42:15.330Z,5.72
2022-12-12T16:44:43.664Z,5.67
2022-12-12T16:47:23.534Z,5.64
2022-12-12T16:49:53.214Z,5.62
2022-12-12T16:52:21.867Z,5.53
2022-12-12T16:54:53.915Z,5.39
2022-12-12T16:57:23.516Z,5.34
2022-12-12T16:59:51.850Z,5.35
2022-12-12T17:02:21.910Z,5.37
2022-12-12T17:04:51.074Z,5.36
2022-12-12T17:07:20.708Z,5.37
2022-12-12T17:09:48.898Z,5.30
2022-12-12T17:12:17.134Z,5.28
2022-12-12T17:14:45.288Z,5.33
2022-12-12T17:17:13.456Z,5.36
2022-12-12T17:19:41.883Z,5.26
2022-12-12T17:22:12.988Z,5.21
2022-12-12T17:24:42.883Z,5.10
2022-12-12T17:27:11.056Z,5.04
2022-12-12T17:29:39.243Z,4.99
2022-12-12T17:32:08.503Z,4.97
2022-12-12T17:34:36.933Z,4.94
2022-12-12T17:37:05.112Z,4.86
2022-12-12T17:39:33.222Z,4.90
2022-12-12T17:42:02.853Z,4.94
2022-12-12T17:44:32.039Z,4.99
2022-12-12T17:47:00.159Z,4.97
2022-12-12T17:49:28.412Z,5.02
2022-12-12T17:51:56.662Z,5.02
2022-12-12T17:54:24.858Z,5.15
2022-12-12T17:56:53.075Z,5.39
2022-12-12T17:59:22.672Z,5.51
2022-12-12T18:01:54.051Z,5.59
2022-12-12T18:04:27.724Z,5.63
2022-12-12T18:06:56.359Z,5.64
2022-12-12T18:09:24.531Z,5.68
2022-12-12T18:11:52.698Z,5.71
2022-12-12T18:14:22.253Z,5.67
2022-12-12T18:16:52.437Z,5.59
2022-12-12T18:19:21.228Z,5.45
2022-12-12T18:22:00.719Z,5.34
2022-12-12T18:24:30.474Z,5.26
2022-12-12T18:26:59.890Z,5.40
2022-12-12T18:29:29.584Z,5.40
2022-12-12T18:31:57.837Z,5.50
2022-12-12T18:34:26.519Z,5.54
2022-12-12T18:36:54.650Z,5.47
2022-12-12T18:39:22.822Z,5.59
2022-12-12T18:41:52.145Z,5.54
2022-12-12T18:44:20.502Z,5.43
2022-12-12T18:46:52.626Z,5.39
2022-12-12T18:49:20.884Z,5.38
2022-12-12T18:51:49.029Z,5.27
2022-12-12T18:54:17.583Z,5.28
2022-12-12T18:56:46.559Z,5.33
2022-12-12T18:59:16.131Z,5.31
2022-12-12T19:01:44.768Z,5.45
2022-12-12T19:04:23.559Z,5.47
2022-12-12T19:06:52.279Z,5.59
2022-12-12T19:09:21.116Z,5.66
2022-12-12T19:11:49.325Z,5.77
2022-12-12T19:14:18.616Z,5.81
2022-12-12T19:16:47.243Z,5.85
2022-12-12T19:19:15.947Z,5.92
2022-12-12T19:21:46.455Z,5.93
2022-12-12T19:24:15.209Z,5.96
2022-12-12T19:26:47.716Z,6.06
2022-12-12T19:29:18.358Z,6.17
2022-12-12T19:31:46.984Z,6.22
2022-12-12T19:34:16.911Z,6.34
2022-12-12T19:36:46.970Z,6.40
2022-12-12T19:39:15.133Z,6.38
2022-12-12T19:41:43.504Z,6.43
2022-12-12T19:44:13.550Z,6.60
2022-12-12T19:46:43.433Z,6.53
2022-12-12T19:49:13.695Z,6.57
2022-12-12T19:51:42.866Z,6.67
2022-12-12T19:54:15.503Z,6.66
2022-12-12T19:56:44.585Z,6.74
2022-12-12T19:59:14.008Z,6.65
2022-12-12T20:01:43.211Z,6.66
2022-12-12T20:04:16.662Z,6.68
2022-12-12T20:06:46.451Z,6.69
2022-12-12T20:09:18.008Z,6.70
2022-12-12T20:11:46.926Z,6.74
2022-12-12T20:14:16.774Z,6.77
2022-12-12T20:16:45.450Z,6.83
2022-12-12T20:19:14.612Z,6.84
2022-12-12T20:22:00.737Z,6.90
2022-12-12T20:24:31.955Z,6.94
2022-12-12T20:27:00.705Z,6.92
2022-12-12T20:29:29.171Z,6.95
2022-12-12T20:31:59.866Z,7.02
2022-12-12T20:34:29.119Z,7.05
2022-12-12T20:36:57.462Z,7.05
2022-12-12T20:39:26.172Z,7.04
2022-12-12T20:41:57.022Z,7.09
2022-12-12T20:44:25.800Z,7.05
2022-12-12T20:46:55.270Z,7.06
2022-12-12T20:49:24.856Z,6.99
2022-12-12T20:51:56.533Z,6.49
2022-12-12T20:54:25.962Z,6.15
2022-12-12T20:56:56.019Z,5.69
2022-12-12T20:59:24.800Z,5.41
2022-12-12T21:01:53.939Z,5.35
2022-12-12T21:04:22.555Z,5.04
2022-12-12T21:06:51.648Z,5.08
2022-12-12T21:09:24.772Z,5.04
2022-12-12T21:11:56.977Z,5.05
2022-12-12T21:14:25.554Z,5.01
2022-12-12T21:16:53.896Z,4.89
2022-12-12T21:19:23.437Z,4.99
2022-12-12T21:21:52.306Z,4.88
2022-12-12T21:24:20.885Z,4.75
2022-12-12T21:26:49.202Z,4.78
2022-12-12T21:29:19.187Z,4.78
2022-12-12T21:31:51.654Z,4.81
2022-12-12T21:34:22.612Z,4.81
2022-12-12T21:36:54.897Z,4.81
2022-12-12T21:39:25.092Z,4.71
2022-12-12T21:41:53.305Z,4.64
2022-12-12T21:44:22.906Z,4.57
2022-12-12T21:46:51.095Z,4.58
2022-12-12T21:49:27.815Z,4.52
2022-12-12T21:51:57.566Z,4.32
2022-12-12T21:54:26.527Z,4.22
2022-12-12T21:56:54.780Z,4.18
2022-12-12T21:59:25.808Z,4.08
2022-12-12T22:01:56.056Z,3.95
2022-12-12T22:04:24.690Z,3.84
2022-12-12T22:06:53.092Z,3.83
2022-12-12T22:09:21.201Z,3.77
2022-12-12T22:11:52.117Z,3.66
2022-12-12T22:14:32.651Z,3.66
2022-12-12T22:17:00.758Z,3.59
2022-12-12T22:19:29.141Z,3.61
2022-12-12T22:21:57.300Z,3.48
2022-12-12T22:24:26.198Z,3.48
2022-12-12T22:26:54.343Z,3.44
2022-12-12T22:29:22.567Z,3.31
2022-12-12T22:31:52.514Z,3.28
2022-12-12T22:34:23.470Z,3.22
2022-12-12T22:36:52.452Z,3.14
2022-12-12T22:39:23.639Z,3.12
2022-12-12T22:41:52.127Z,3.09
2022-12-12T22:44:22.473Z,3.04
2022-12-12T22:46:54.222Z,2.93
2022-12-12T22:49:25.848Z,2.95
2022-12-12T22:51:54.962Z,2.96
2022-12-12T22:54:23.415Z,2.96
2022-12-12T22:56:51.531Z,2.95
2022-12-12T22:59:19.656Z,2.85
2022-12-12T23:01:47.778Z,2.83
2022-12-12T23:04:17.522Z,2.78
2022-12-12T23:06:46.031Z,2.64
2022-12-12T23:09:16.655Z,2.61
2022-12-12T23:11:45.935Z,2.46
2022-12-12T23:14:16.289Z,2.34
2022-12-12T23:16:45.269Z,2.40
2022-12-12T23:19:16.017Z,2.28
2022-12-12T23:21:46.403Z,2.26
2022-12-12T23:24:15.189Z,2.22
2022-12-12T23:26:43.737Z,2.09
2022-12-12T23:29:16.394Z,2.08
2022-12-12T23:31:44.780Z,2.01
2022-12-12T23:34:16.424Z,1.94
2022-12-12T23:36:45.998Z,1.96
2022-12-12T23:39:15.174Z,1.97
2022-12-12T23:41:43.410Z,1.94
2022-12-12T23:44:13.293Z,1.95
2022-12-12T23:46:41.973Z,1.93
2022-12-12T23:49:16.168Z,1.90
2022-12-12T23:51:47.271Z,1.91
2022-12-12T23:54:17.345Z,1.89
2022-12-12T23:56:45.930Z,1.81
2022-12-12T23:59:17.942Z,1.79
